Observation data for Haskell on 12/07/2019      Previous  Date       Current Mesonet Observations  Soil Data  Daily Summary Page  Observations in Plain Language
KHA1 070600Z 07004KT 06/02 A3034 RMK A01 T00570023  RH  080%=      5-min Rain = 0
KHA1 070605Z 06004KT 06/02 A3034 RMK A01 T00550022  RH  081%=      5-min Rain = 0
KHA1 070610Z 07004KT 06/02 A3034 RMK A01 T00550023  RH  081%=      5-min Rain = 0
KHA1 070615Z 07004KT 05/02 A3034 RMK A01 T00540022  RH  081%=      5-min Rain = 0
KHA1 070620Z 07004KT 05/02 A3034 RMK A01 T00540022  RH  081%=      5-min Rain = 0
KHA1 070625Z 08004KT 05/02 A3034 RMK A01 T00540021  RH  081%=      5-min Rain = 0
KHA1 070630Z 08004KT 05/02 A3034 RMK A01 T00530021  RH  081%=      5-min Rain = 0
KHA1 070635Z 08004KT 05/02 A3033 RMK A01 T00540021  RH  080%=      5-min Rain = 0
KHA1 070640Z 08004KT 05/02 A3033 RMK A01 T00530020  RH  080%=      5-min Rain = 0
KHA1 070645Z 08004KT 05/02 A3033 RMK A01 T00520019  RH  081%=      5-min Rain = 0
KHA1 070650Z 08004KT 05/02 A3033 RMK A01 T00500018  RH  081%=      5-min Rain = 0
KHA1 070655Z 09003KT 05/02 A3033 RMK A01 T00490017  RH  081%=      5-min Rain = 0
KHA1 070700Z 08003KT 05/02 A3033 RMK A01 T00480017  RH  081%=      5-min Rain = 0
KHA1 070705Z 08003KT 05/02 A3033 RMK A01 T00480016  RH  081%=      5-min Rain = 0
KHA1 070710Z 08003KT 05/02 A3033 RMK A01 T00470015  RH  081%=      5-min Rain = 0
KHA1 070715Z 09003KT 05/02 A3033 RMK A01 T00450015  RH  082%=      5-min Rain = 0
KHA1 070720Z 09003KT 04/02 A3033 RMK A01 T00440015  RH  082%=      5-min Rain = 0
KHA1 070725Z 08002KT 04/02 A3033 RMK A01 T00440015  RH  083%=      5-min Rain = 0
KHA1 070730Z 08002KT 05/02 A3034 RMK A01 T00450015  RH  082%=      5-min Rain = 0
KHA1 070735Z 09002KT 04/01 A3034 RMK A01 T00440014  RH  082%=      5-min Rain = 0
KHA1 070740Z 10001KT 04/01 A3034 RMK A01 T00390011  RH  083%=      5-min Rain = 0
KHA1 070745Z 08001KT 04/01 A3034 RMK A01 T00380012  RH  084%=      5-min Rain = 0
KHA1 070750Z 09001KT 04/01 A3034 RMK A01 T00370012  RH  085%=      5-min Rain = 0
KHA1 070755Z 09001KT 04/01 A3034 RMK A01 T00360013  RH  086%=      5-min Rain = 0
KHA1 070800Z 10001KT 03/01 A3034 RMK A01 T00330009  RH  086%=      5-min Rain = 0
KHA1 070805Z 13001KT 02/00 A3034 RMK A01 T00240002  RH  086%=      5-min Rain = 0
KHA1 070810Z 12001KT 03/01 A3034 RMK A01 T00250007  RH  089%=      5-min Rain = 0
KHA1 070815Z 11000KT 03/01 A3034 RMK A01 T00280011  RH  090%=      5-min Rain = 0
KHA1 070820Z 00000KT 03/01 A3034 RMK A01 T00260008  RH  090%=      5-min Rain = 0
KHA1 070825Z 00000KT 02/01 A3034 RMK A01 T00220005  RH  090%=      5-min Rain = 0
KHA1 070830Z 00000KT 02/00 A3034 RMK A01 T00180000  RH  089%=      5-min Rain = 0
KHA1 070835Z 07000KT 01/M00 A3034 RMK A01 T00141003  RH  090%=      5-min Rain = 0
KHA1 070840Z 05002KT 01/M01 A3034 RMK A01 T00111005  RH  090%=      5-min Rain = 0
KHA1 070845Z 06001KT 01/M00 A3034 RMK A01 T00101004  RH  091%=      5-min Rain = 0
KHA1 070850Z 06002KT 01/M00 A3034 RMK A01 T00111003  RH  092%=      5-min Rain = 0
KHA1 070855Z 05002KT 01/M00 A3034 RMK A01 T00111002  RH  092%=      5-min Rain = 0
KHA1 070900Z 05003KT 01/M00 A3034 RMK A01 T00101003  RH  092%=      5-min Rain = 0
KHA1 070905Z 06003KT 01/M00 A3034 RMK A01 T00111002  RH  092%=      5-min Rain = 0
KHA1 070910Z 05003KT 01/M00 A3034 RMK A01 T00111001  RH  092%=      5-min Rain = 0
KHA1 070915Z 05002KT 01/M01 A3034 RMK A01 T00091005  RH  092%=      5-min Rain = 0
KHA1 070920Z 05002KT 01/M01 A3034 RMK A01 T00071006  RH  092%=      5-min Rain = 0
KHA1 070925Z 05002KT 01/M00 A3034 RMK A01 T00081004  RH  092%=      5-min Rain = 0
KHA1 070930Z 04002KT 01/M00 A3034 RMK A01 T00111001  RH  093%=      5-min Rain = 0
KHA1 070935Z 04002KT 01/00 A3034 RMK A01 T00130000  RH  093%=      5-min Rain = 0
KHA1 070940Z 04002KT 01/00 A3033 RMK A01 T00130001  RH  093%=      5-min Rain = 0
KHA1 070945Z 04002KT 01/M00 A3033 RMK A01 T00121001  RH  092%=      5-min Rain = 0
KHA1 070950Z 04002KT 01/M00 A3033 RMK A01 T00101003  RH  092%=      5-min Rain = 0
KHA1 070955Z 04000KT 01/M00 A3033 RMK A01 T00101003  RH  093%=      5-min Rain = 0
KHA1 071000Z 02001KT 01/M00 A3033 RMK A01 T00091003  RH  093%=      5-min Rain = 0
KHA1 071005Z 02001KT 01/M00 A3033 RMK A01 T00071004  RH  093%=      5-min Rain = 0
KHA1 071010Z 02001KT 01/M01 A3033 RMK A01 T00051007  RH  093%=      5-min Rain = 0
KHA1 071015Z 02001KT 00/M01 A3033 RMK A01 T00021010  RH  093%=      5-min Rain = 0
KHA1 071020Z 02001KT 00/M01 A3033 RMK A01 T00021009  RH  093%=      5-min Rain = 0
KHA1 071025Z 02001KT 00/M01 A3033 RMK A01 T00021009  RH  093%=      5-min Rain = 0
KHA1 071030Z 02002KT 00/M01 A3033 RMK A01 T00031007  RH  094%=      5-min Rain = 0
KHA1 071035Z 02001KT 00/M01 A3033 RMK A01 T00041006  RH  094%=      5-min Rain = 0
KHA1 071040Z 02001KT 00/M01 A3033 RMK A01 T00041006  RH  094%=      5-min Rain = 0
KHA1 071045Z 02001KT 00/M01 A3033 RMK A01 T00031007  RH  094%=      5-min Rain = 0
KHA1 071050Z 02002KT 00/M01 A3033 RMK A01 T00031006  RH  094%=      5-min Rain = 0
KHA1 071055Z 02000KT 00/M01 A3033 RMK A01 T00041005  RH  095%=      5-min Rain = 0
KHA1 071100Z 00000KT 01/M00 A3033 RMK A01 T00061003  RH  095%=      5-min Rain = 0
KHA1 071105Z 05000KT 01/M00 A3032 RMK A01 T00081001  RH  095%=      5-min Rain = 0
KHA1 071110Z 05000KT 01/M00 A3033 RMK A01 T00081001  RH  095%=      5-min Rain = 0
KHA1 071115Z 07001KT 01/M00 A3032 RMK A01 T00081001  RH  095%=      5-min Rain = 0
KHA1 071120Z 09002KT 01/M00 A3032 RMK A01 T00081001  RH  095%=      5-min Rain = 0
KHA1 071125Z 10003KT 01/00 A3032 RMK A01 T00100002  RH  095%=      5-min Rain = 0
KHA1 071130Z 09004KT 01/00 A3031 RMK A01 T00120003  RH  095%=      5-min Rain = 0
KHA1 071135Z 08005KT 01/01 A3031 RMK A01 T00130005  RH  095%=      5-min Rain = 0
KHA1 071140Z 08004KT 02/01 A3031 RMK A01 T00150006  RH  095%=      5-min Rain = 0
KHA1 071145Z 08003KT 02/01 A3031 RMK A01 T00170006  RH  094%=      5-min Rain = 0
KHA1 071150Z 08003KT 02/01 A3031 RMK A01 T00170005  RH  093%=      5-min Rain = 0
KHA1 071155Z 09003KT 02/00 A3031 RMK A01 T00170004  RH  092%=      5-min Rain = 0
KHA1 071200Z 08004KT 02/00 A3031 RMK A01 T00180004  RH  092%=      5-min Rain = 0
KHA1 071205Z 08004KT 02/01 A3031 RMK A01 T00200005  RH  091%=      5-min Rain = 0
KHA1 071210Z 08002KT 02/00 A3031 RMK A01 T00210004  RH  090%=      5-min Rain = 0
KHA1 071215Z 09001KT 02/00 A3031 RMK A01 T00200002  RH  089%=      5-min Rain = 0
KHA1 071220Z 07001KT 02/00 A3031 RMK A01 T00200002  RH  089%=      5-min Rain = 0
KHA1 071225Z 08000KT 02/00 A3031 RMK A01 T00200002  RH  089%=      5-min Rain = 0
KHA1 071230Z 06001KT 01/M01 A3031 RMK A01 T00131006  RH  088%=      5-min Rain = 0
KHA1 071235Z 05002KT 00/M02 A3031 RMK A01 T00031015  RH  089%=      5-min Rain = 0
KHA1 071240Z 04001KT 00/M01 A3032 RMK A01 T00021013  RH  090%=      5-min Rain = 0
KHA1 071245Z 03001KT M00/M02 A3032 RMK A01 T10021016  RH  091%=      5-min Rain = 0
KHA1 071250Z 36001KT M01/M02 A3032 RMK A01 T10051019  RH  091%=      5-min Rain = 0
KHA1 071255Z 35000KT M00/M02 A3032 RMK A01 T10031015  RH  093%=      5-min Rain = 0
KHA1 071300Z 00000KT M00/M01 A3032 RMK A01 T10011012  RH  093%=      5-min Rain = 0
KHA1 071305Z 00000KT M00/M02 A3032 RMK A01 T10041015  RH  093%=      5-min Rain = 0
KHA1 071310Z 00000KT M00/M02 A3032 RMK A01 T10041016  RH  093%=      5-min Rain = 0
KHA1 071315Z 01001KT M00/M01 A3032 RMK A01 T10041014  RH  093%=      5-min Rain = 0
KHA1 071320Z 01000KT M00/M01 A3032 RMK A01 T10031013  RH  093%=      5-min Rain = 0
KHA1 071325Z 00000KT M01/M02 A3032 RMK A01 T10051016  RH  093%=      5-min Rain = 0
KHA1 071330Z 00000KT M01/M02 A3032 RMK A01 T10071017  RH  093%=      5-min Rain = 0
KHA1 071335Z 00000KT M01/M02 A3032 RMK A01 T10051015  RH  094%=      5-min Rain = 0
KHA1 071340Z 02000KT 00/01 A3032 RMK A01 T00-00-10  RH  094%=      5-min Rain = 0
KHA1 071345Z 00000KT 01/M00 A3032 RMK A01 T00061003  RH  095%=      5-min Rain = 0
KHA1 071350Z 10000KT 01/M00 A3032 RMK A01 T00081001  RH  095%=      5-min Rain = 0
KHA1 071355Z 10001KT 01/M00 A3032 RMK A01 T00091001  RH  094%=      5-min Rain = 0
KHA1 071400Z 09002KT 01/00 A3031 RMK A01 T00120001  RH  094%=      5-min Rain = 0
KHA1 071405Z 09002KT 02/01 A3031 RMK A01 T00180007  RH  094%=      5-min Rain = 0
KHA1 071410Z 08002KT 02/01 A3031 RMK A01 T00220009  RH  092%=      5-min Rain = 0
KHA1 071415Z 07002KT 02/01 A3031 RMK A01 T00240009  RH  091%=      5-min Rain = 0
KHA1 071420Z 07003KT 03/01 A3031 RMK A01 T00270009  RH  089%=      5-min Rain = 0
KHA1 071425Z 07002KT 03/01 A3031 RMK A01 T00310011  RH  088%=      5-min Rain = 0
KHA1 071430Z 06002KT 04/01 A3031 RMK A01 T00350012  RH  086%=      5-min Rain = 0
KHA1 071435Z 07002KT 04/02 A3031 RMK A01 T00400016  RH  086%=      5-min Rain = 0
KHA1 071440Z 07002KT 04/02 A3031 RMK A01 T00440017  RH  083%=      5-min Rain = 0
KHA1 071445Z 08002KT 05/02 A3031 RMK A01 T00470017  RH  082%=      5-min Rain = 0
KHA1 071450Z 08002KT 05/02 A3031 RMK A01 T00530018  RH  079%=      5-min Rain = 0
KHA1 071455Z 09001KT 06/02 A3031 RMK A01 T00570017  RH  077%=      5-min Rain = 0
KHA1 071500Z 10002KT 06/02 A3031 RMK A01 T00580017  RH  076%=      5-min Rain = 0
KHA1 071505Z 15002KT 06/02 A3031 RMK A01 T00580018  RH  077%=      5-min Rain = 0
KHA1 071510Z 14002KT 06/02 A3031 RMK A01 T00580018  RH  076%=      5-min Rain = 0
KHA1 071515Z 19002KT 06/02 A3032 RMK A01 T00610021  RH  077%=      5-min Rain = 0
KHA1 071520Z 19004KT 06/02 A3032 RMK A01 T00630019  RH  075%=      5-min Rain = 0
KHA1 071525Z 19003KT 07/02 A3031 RMK A01 T00660020  RH  074%=      5-min Rain = 0
KHA1 071530Z 18004KT 07/02 A3032 RMK A01 T00650019  RH  073%=      5-min Rain = 0
KHA1 071535Z 19004KT 07/02 A3032 RMK A01 T00660020  RH  074%=      5-min Rain = 0
KHA1 071540Z 19005KT 07/02 A3033 RMK A01 T00660020  RH  073%=      5-min Rain = 0
KHA1 071545Z 18004KT 07/02 A3032 RMK A01 T00690022  RH  073%=      5-min Rain = 0
KHA1 071550Z 21005KT 07/02 A3033 RMK A01 T00720024  RH  072%=      5-min Rain = 0
KHA1 071555Z 20005KT 08/03 A3033 RMK A01 T00750025  RH  072%=      5-min Rain = 0
KHA1 071600Z 20005KT 08/03 A3033 RMK A01 T00780027  RH  071%=      5-min Rain = 0
KHA1 071605Z 20005KT 08/02 A3033 RMK A01 T00780023  RH  069%=      5-min Rain = 0
KHA1 071610Z 22005KT 08/02 A3033 RMK A01 T00770020  RH  068%=      5-min Rain = 0
KHA1 071615Z 21005KT 08/02 A3032 RMK A01 T00780021  RH  068%=      5-min Rain = 0
KHA1 071620Z 21005KT 08/02 A3032 RMK A01 T00810023  RH  068%=      5-min Rain = 0
KHA1 071625Z 20005KT 08/02 A3032 RMK A01 T00800021  RH  068%=      5-min Rain = 0
KHA1 071630Z 21005KT 09/02 A3032 RMK A01 T00850024  RH  067%=      5-min Rain = 0
KHA1 071635Z 22004KT 09/02 A3032 RMK A01 T00880023  RH  065%=      5-min Rain = 0
KHA1 071640Z 21005KT 09/02 A3032 RMK A01 T00910024  RH  064%=      5-min Rain = 0
KHA1 071645Z 19005KT 09/02 A3032 RMK A01 T00910023  RH  063%=      5-min Rain = 0
KHA1 071650Z 20004KT 09/03 A3032 RMK A01 T00930025  RH  063%=      5-min Rain = 0
KHA1 071655Z 22005KT 09/02 A3032 RMK A01 T00940024  RH  063%=      5-min Rain = 0
KHA1 071700Z 21005KT 10/02 A3032 RMK A01 T00960024  RH  061%=      5-min Rain = 0
KHA1 071705Z 19004KT 10/02 A3032 RMK A01 T00950023  RH  062%=      5-min Rain = 0
KHA1 071710Z 20004KT 10/03 A3031 RMK A01 T01010026  RH  061%=      5-min Rain = 0
KHA1 071715Z 18004KT 11/03 A3031 RMK A01 T01070029  RH  059%=      5-min Rain = 0
KHA1 071720Z 18004KT 11/03 A303 RMK A01 T01080027  RH  058%=      5-min Rain = 0
KHA1 071725Z 17005KT 10/02 A303 RMK A01 T01030023  RH  059%=      5-min Rain = 0
KHA1 071730Z 17005KT 10/02 A303 RMK A01 T00990022  RH  060%=      5-min Rain = 0
KHA1 071735Z 18005KT 10/03 A303 RMK A01 T01020025  RH  060%=      5-min Rain = 0
KHA1 071740Z 18004KT 10/03 A303 RMK A01 T01030026  RH  060%=      5-min Rain = 0
KHA1 071745Z 20005KT 11/03 A3029 RMK A01 T01050026  RH  059%=      5-min Rain = 0
KHA1 071750Z 16005KT 11/02 A3029 RMK A01 T01070024  RH  057%=      5-min Rain = 0
KHA1 071755Z 18004KT 11/03 A3028 RMK A01 T01100027  RH  057%=      5-min Rain = 0
KHA1 071800Z 16005KT 11/02 A3027 RMK A01 T01120022  RH  055%=      5-min Rain = 0
KHA1 071805Z 18005KT 11/03 A3027 RMK A01 T01140026  RH  056%=      5-min Rain = 0
KHA1 071810Z 19004KT 12/03 A3027 RMK A01 T01160028  RH  056%=      5-min Rain = 0
KHA1 071815Z 17004KT 12/03 A3026 RMK A01 T01210031  RH  055%=      5-min Rain = 0
KHA1 071820Z 18005KT 12/03 A3026 RMK A01 T01190029  RH  055%=      5-min Rain = 0
KHA1 071825Z 18004KT 12/03 A3026 RMK A01 T01220031  RH  055%=      5-min Rain = 0
KHA1 071830Z 19006KT 13/03 A3026 RMK A01 T01260031  RH  053%=      5-min Rain = 0
KHA1 071835Z 18005KT 12/03 A3025 RMK A01 T01230029  RH  053%=      5-min Rain = 0
KHA1 071840Z 19006KT 13/03 A3025 RMK A01 T01250031  RH  054%=      5-min Rain = 0
KHA1 071845Z 18005KT 13/03 A3024 RMK A01 T01280031  RH  053%=      5-min Rain = 0
KHA1 071850Z 16005KT 13/03 A3023 RMK A01 T01270029  RH  052%=      5-min Rain = 0
KHA1 071855Z 17005KT 13/03 A3023 RMK A01 T01310029  RH  051%=      5-min Rain = 0
KHA1 071900Z 16006KT 13/03 A3022 RMK A01 T01330029  RH  050%=      5-min Rain = 0
KHA1 071905Z 16005KT 14/03 A3022 RMK A01 T01400033  RH  049%=      5-min Rain = 0
KHA1 071910Z 16007KT 14/03 A3021 RMK A01 T01390028  RH  048%=      5-min Rain = 0
KHA1 071915Z 16005G10KT 14/03 A3021 RMK A01 T01380026  RH  048%=      5-min Rain = 0
KHA1 071920Z 18007KT 14/03 A3021 RMK A01 T01400025  RH  046%=      5-min Rain = 0
KHA1 071925Z 18007G12KT 14/03 A3021 RMK A01 T01420027  RH  047%=      5-min Rain = 0
KHA1 071930Z 18008KT 14/03 A302 RMK A01 T01440026  RH  046%=      5-min Rain = 0
KHA1 071935Z 19008KT 14/03 A302 RMK A01 T01430027  RH  046%=      5-min Rain = 0
KHA1 071940Z 18007G12KT 15/03 A302 RMK A01 T01450029  RH  046%=      5-min Rain = 0
KHA1 071945Z 18008KT 15/03 A3019 RMK A01 T01450027  RH  046%=      5-min Rain = 0
KHA1 071950Z 17008KT 14/03 A3019 RMK A01 T01440028  RH  046%=      5-min Rain = 0
KHA1 071955Z 16007KT 15/03 A3018 RMK A01 T01460029  RH  046%=      5-min Rain = 0
KHA1 072000Z 17007KT 15/03 A3018 RMK A01 T01470030  RH  046%=      5-min Rain = 0
KHA1 072005Z 18007KT 15/03 A3018 RMK A01 T01470030  RH  046%=      5-min Rain = 0
KHA1 072010Z 17007KT 15/03 A3017 RMK A01 T01490030  RH  046%=      5-min Rain = 0
KHA1 072015Z 17008KT 15/03 A3017 RMK A01 T01500031  RH  046%=      5-min Rain = 0
KHA1 072020Z 15007KT 15/03 A3017 RMK A01 T01520033  RH  046%=      5-min Rain = 0
KHA1 072025Z 17007KT 16/03 A3017 RMK A01 T01560033  RH  045%=      5-min Rain = 0
KHA1 072030Z 18008KT 16/03 A3016 RMK A01 T01590032  RH  044%=      5-min Rain = 0
KHA1 072035Z 17007KT 16/03 A3016 RMK A01 T01580032  RH  044%=      5-min Rain = 0
KHA1 072040Z 19008G13KT 16/03 A3016 RMK A01 T01640030  RH  041%=      5-min Rain = 0
KHA1 072045Z 18009KT 17/02 A3016 RMK A01 T01650023  RH  039%=      5-min Rain = 0
KHA1 072050Z 19010KT 17/03 A3015 RMK A01 T01650026  RH  040%=      5-min Rain = 0
KHA1 072055Z 18010KT 17/03 A3015 RMK A01 T01660026  RH  040%=      5-min Rain = 0
KHA1 072100Z 19010KT 17/03 A3015 RMK A01 T01690026  RH  039%=      5-min Rain = 0
KHA1 072105Z 17008KT 17/02 A3015 RMK A01 T01700024  RH  038%=      5-min Rain = 0
KHA1 072110Z 18008KT 17/03 A3014 RMK A01 T01700026  RH  039%=      5-min Rain = 0
KHA1 072115Z 17009KT 17/02 A3014 RMK A01 T01710024  RH  038%=      5-min Rain = 0
KHA1 072120Z 18009G15KT 17/02 A3013 RMK A01 T01720023  RH  037%=      5-min Rain = 0
KHA1 072125Z 19010KT 18/02 A3013 RMK A01 T01750020  RH  036%=      5-min Rain = 0
KHA1 072130Z 17009KT 18/02 A3013 RMK A01 T01760021  RH  036%=      5-min Rain = 0
KHA1 072135Z 18008KT 18/02 A3013 RMK A01 T01770024  RH  036%=      5-min Rain = 0
KHA1 072140Z 18008KT 18/02 A3013 RMK A01 T01780024  RH  036%=      5-min Rain = 0
KHA1 072145Z 17007KT 18/02 A3012 RMK A01 T01790024  RH  036%=      5-min Rain = 0
KHA1 072150Z 16008KT 18/02 A3012 RMK A01 T01790023  RH  036%=      5-min Rain = 0
KHA1 072155Z 17006G11KT 18/02 A3012 RMK A01 T01790024  RH  036%=      5-min Rain = 0
KHA1 072200Z 16009KT 18/02 A3012 RMK A01 T01790018  RH  035%=      5-min Rain = 0
KHA1 072205Z 17009KT 18/02 A3012 RMK A01 T01790019  RH  035%=      5-min Rain = 0
KHA1 072210Z 18008G13KT 18/02 A3012 RMK A01 T01790019  RH  035%=      5-min Rain = 0
KHA1 072215Z 17007KT 18/02 A3012 RMK A01 T01790019  RH  035%=      5-min Rain = 0
KHA1 072220Z 18008G13KT 18/02 A3012 RMK A01 T01790018  RH  035%=      5-min Rain = 0
KHA1 072225Z 19010KT 18/02 A3012 RMK A01 T01760015  RH  034%=      5-min Rain = 0
KHA1 072230Z 19009KT 17/02 A3012 RMK A01 T01740016  RH  035%=      5-min Rain = 0
KHA1 072235Z 18007KT 17/02 A3012 RMK A01 T01720016  RH  035%=      5-min Rain = 0
KHA1 072240Z 18009KT 17/02 A3012 RMK A01 T01700016  RH  036%=      5-min Rain = 0
KHA1 072245Z 19008KT 17/02 A3011 RMK A01 T01680017  RH  037%=      5-min Rain = 0
KHA1 072250Z 18007KT 17/02 A3011 RMK A01 T01660019  RH  038%=      5-min Rain = 0
KHA1 072255Z 18007KT 16/02 A3011 RMK A01 T01640019  RH  038%=      5-min Rain = 0
KHA1 072300Z 18006KT 16/02 A3011 RMK A01 T01600021  RH  040%=      5-min Rain = 0
KHA1 072305Z 18007KT 16/02 A3011 RMK A01 T01590021  RH  040%=      5-min Rain = 0
KHA1 072310Z 18006KT 16/02 A3011 RMK A01 T01570022  RH  041%=      5-min Rain = 0
KHA1 072315Z 18006KT 16/02 A3011 RMK A01 T01570023  RH  041%=      5-min Rain = 0
KHA1 072320Z 17006KT 16/02 A3011 RMK A01 T01560023  RH  041%=      5-min Rain = 0
KHA1 072325Z 17006KT 15/02 A3011 RMK A01 T01530022  RH  042%=      5-min Rain = 0
KHA1 072330Z 16005KT 15/02 A301 RMK A01 T01520022  RH  042%=      5-min Rain = 0
KHA1 072335Z 17005KT 15/02 A301 RMK A01 T01500023  RH  043%=      5-min Rain = 0
KHA1 072340Z 17006KT 15/02 A3011 RMK A01 T01480024  RH  044%=      5-min Rain = 0
KHA1 072345Z 17005KT 15/02 A3011 RMK A01 T01470024  RH  044%=      5-min Rain = 0
KHA1 072350Z 17005KT 15/03 A3011 RMK A01 T01450025  RH  045%=      5-min Rain = 0
KHA1 072355Z 16006KT 15/03 A301 RMK A01 T01450025  RH  045%=      5-min Rain = 0
KHA1 080000Z 16006KT 15/03 A301 RMK A01 T01450025  RH  045%=      5-min Rain = 0
KHA1 080005Z 15006KT 14/03 A301 RMK A01 T01440025  RH  045%=      5-min Rain = 0
KHA1 080010Z 15006KT 14/03 A301 RMK A01 T01400025  RH  047%=      5-min Rain = 0
KHA1 080015Z 15006KT 14/03 A3009 RMK A01 T01390025  RH  047%=      5-min Rain = 0
KHA1 080020Z 15006KT 14/03 A3009 RMK A01 T01380025  RH  047%=      5-min Rain = 0
KHA1 080025Z 15006KT 14/03 A301 RMK A01 T01380025  RH  047%=      5-min Rain = 0
KHA1 080030Z 15007KT 14/02 A301 RMK A01 T01370024  RH  047%=      5-min Rain = 0
KHA1 080035Z 15007KT 14/02 A3009 RMK A01 T01360024  RH  048%=      5-min Rain = 0
KHA1 080040Z 15007KT 13/02 A3009 RMK A01 T01340023  RH  048%=      5-min Rain = 0
KHA1 080045Z 15006KT 13/02 A3009 RMK A01 T01320023  RH  048%=      5-min Rain = 0
KHA1 080050Z 14006KT 13/02 A3009 RMK A01 T01320022  RH  048%=      5-min Rain = 0
KHA1 080055Z 14007KT 13/02 A3009 RMK A01 T01310022  RH  048%=      5-min Rain = 0
KHA1 080100Z 14007KT 13/02 A3008 RMK A01 T01310022  RH  048%=      5-min Rain = 0
KHA1 080105Z 15007KT 13/02 A3008 RMK A01 T01290022  RH  049%=      5-min Rain = 0
KHA1 080110Z 15008KT 13/02 A3008 RMK A01 T01300021  RH  048%=      5-min Rain = 0
KHA1 080115Z 15008G13KT 13/02 A3008 RMK A01 T01290021  RH  049%=      5-min Rain = 0
KHA1 080120Z 15009KT 13/02 A3008 RMK A01 T01280020  RH  048%=      5-min Rain = 0
KHA1 080125Z 15009KT 13/02 A3008 RMK A01 T01270020  RH  049%=      5-min Rain = 0
KHA1 080130Z 15009G14KT 13/02 A3008 RMK A01 T01270020  RH  049%=      5-min Rain = 0
KHA1 080135Z 15009KT 13/02 A3009 RMK A01 T01250020  RH  049%=      5-min Rain = 0
KHA1 080140Z 15008KT 12/02 A3008 RMK A01 T01230020  RH  050%=      5-min Rain = 0
KHA1 080145Z 15008KT 12/02 A3008 RMK A01 T01210020  RH  051%=      5-min Rain = 0
KHA1 080150Z 15007KT 12/02 A3008 RMK A01 T01180020  RH  052%=      5-min Rain = 0
KHA1 080155Z 16008KT 12/02 A3008 RMK A01 T01180019  RH  052%=      5-min Rain = 0
KHA1 080200Z 16008KT 12/02 A3007 RMK A01 T01190019  RH  051%=      5-min Rain = 0
KHA1 080205Z 16009G14KT 12/02 A3007 RMK A01 T01200019  RH  051%=      5-min Rain = 0
KHA1 080210Z 16009KT 12/02 A3007 RMK A01 T01200019  RH  051%=      5-min Rain = 0
KHA1 080215Z 16009KT 12/02 A3007 RMK A01 T01190019  RH  051%=      5-min Rain = 0
KHA1 080220Z 16009KT 12/02 A3007 RMK A01 T01200020  RH  051%=      5-min Rain = 0
KHA1 080225Z 16009KT 12/02 A3007 RMK A01 T01190020  RH  051%=      5-min Rain = 0
KHA1 080230Z 16008G13KT 12/02 A3006 RMK A01 T01190020  RH  051%=      5-min Rain = 0
KHA1 080235Z 16008KT 12/02 A3006 RMK A01 T01190019  RH  051%=      5-min Rain = 0
KHA1 080240Z 16008KT 12/02 A3006 RMK A01 T01180019  RH  051%=      5-min Rain = 0
KHA1 080245Z 17009KT 12/02 A3006 RMK A01 T01160019  RH  052%=      5-min Rain = 0
KHA1 080250Z 17008KT 12/02 A3006 RMK A01 T01150019  RH  053%=      5-min Rain = 0
KHA1 080255Z 17007KT 11/02 A3006 RMK A01 T01130019  RH  053%=      5-min Rain = 0
KHA1 080300Z 17008KT 11/02 A3006 RMK A01 T01110019  RH  054%=      5-min Rain = 0
KHA1 080305Z 17007KT 11/02 A3006 RMK A01 T01100019  RH  054%=      5-min Rain = 0
KHA1 080310Z 17007KT 11/02 A3006 RMK A01 T01070019  RH  055%=      5-min Rain = 0
KHA1 080315Z 17008KT 11/02 A3006 RMK A01 T01050019  RH  056%=      5-min Rain = 0
KHA1 080320Z 17007KT 10/02 A3006 RMK A01 T01040019  RH  056%=      5-min Rain = 0
KHA1 080325Z 17007KT 10/02 A3006 RMK A01 T01020018  RH  057%=      5-min Rain = 0
KHA1 080330Z 17009KT 10/02 A3006 RMK A01 T01020018  RH  057%=      5-min Rain = 0
KHA1 080335Z 17009KT 10/02 A3005 RMK A01 T01030018  RH  057%=      5-min Rain = 0
KHA1 080340Z 17009KT 10/02 A3005 RMK A01 T01030018  RH  057%=      5-min Rain = 0
KHA1 080345Z 17009KT 10/02 A3004 RMK A01 T01030018  RH  056%=      5-min Rain = 0
KHA1 080350Z 17008KT 10/02 A3004 RMK A01 T01020018  RH  057%=      5-min Rain = 0
KHA1 080355Z 17009KT 10/02 A3004 RMK A01 T01010018  RH  057%=      5-min Rain = 0
KHA1 080400Z 18008KT 10/02 A3004 RMK A01 T01000018  RH  057%=      5-min Rain = 0
KHA1 080405Z 18009KT 10/02 A3004 RMK A01 T01000019  RH  058%=      5-min Rain = 0
KHA1 080410Z 18009KT 10/02 A3004 RMK A01 T00990019  RH  058%=      5-min Rain = 0
KHA1 080415Z 18008G13KT 10/02 A3004 RMK A01 T00980019  RH  059%=      5-min Rain = 0
KHA1 080420Z 18008KT 10/02 A3004 RMK A01 T00980019  RH  059%=      5-min Rain = 0
KHA1 080425Z 18008KT 10/02 A3004 RMK A01 T00980020  RH  059%=      5-min Rain = 0
KHA1 080430Z 18008KT 10/02 A3004 RMK A01 T00980020  RH  059%=      5-min Rain = 0
KHA1 080435Z 18008KT 10/02 A3004 RMK A01 T00970020  RH  059%=      5-min Rain = 0
KHA1 080440Z 18008KT 10/02 A3004 RMK A01 T00980020  RH  059%=      5-min Rain = 0
KHA1 080445Z 18008KT 10/02 A3004 RMK A01 T00970020  RH  060%=      5-min Rain = 0
KHA1 080450Z 18008KT 10/02 A3004 RMK A01 T00970020  RH  060%=      5-min Rain = 0
KHA1 080455Z 18007KT 10/02 A3004 RMK A01 T00980020  RH  060%=      5-min Rain = 0
KHA1 080500Z 18008KT 10/02 A3004 RMK A01 T00990021  RH  059%=      5-min Rain = 0
KHA1 080505Z 18007KT 10/02 A3004 RMK A01 T00990020  RH  059%=      5-min Rain = 0
KHA1 080510Z 18006KT 10/02 A3004 RMK A01 T00980020  RH  059%=      5-min Rain = 0
KHA1 080515Z 18007KT 10/02 A3004 RMK A01 T00980021  RH  060%=      5-min Rain = 0
KHA1 080520Z 18008KT 10/02 A3004 RMK A01 T00980021  RH  060%=      5-min Rain = 0
KHA1 080525Z 18008KT 10/02 A3004 RMK A01 T00990022  RH  060%=      5-min Rain = 0
KHA1 080530Z 18008KT 10/02 A3004 RMK A01 T00980022  RH  060%=      5-min Rain = 0
KHA1 080535Z 18008KT 10/02 A3003 RMK A01 T00980022  RH  060%=      5-min Rain = 0
KHA1 080540Z 18007KT 10/02 A3003 RMK A01 T00970022  RH  060%=      5-min Rain = 0
KHA1 080545Z 18007KT 10/02 A3003 RMK A01 T00970023  RH  061%=      5-min Rain = 0
KHA1 080550Z 18007KT 10/02 A3003 RMK A01 T00970023  RH  061%=      5-min Rain = 0
KHA1 080555Z 18007KT 10/02 A3002 RMK A01 T00960023  RH  061%=      5-min Rain = 0

Page generated in 0.0093 seconds.